• Join FlightAware (Why Join?)
  • Login
  • US Flag 
06:35PM EDT


 

Airport Tracker/Info


-or-


 

Live Flight TrackerFlight Track Log ✈ RPA3392 ✈ 22-May-2013 ✈ KMSP - KDCA

Flight Track Log - Related Links

Times and Time Zones

All times are in EDT time to prevent confusion due to time zone crossing. See the RPA3392 flight status page for this flight to view local times or setup timezone preferences in your user account.

Time Position Orientation Groundspeed Altitude Reporting Facility
EDT Latitude Longitude Course Direction KTS MPH feet Rate Location/Type
05:50PM 44.9333 -93.2500 133° Southeast 165 190 3,000  Level Minneapolis TRACON
05:51PM 44.9428 -93.2464 15° North 174 200 3,600 1,980 Climbing Minneapolis Center
05:52PM 44.7593 -92.7748 111° Southeast  Level Estimated
05:52PM 45.0069 -93.2486 359° North 227 261 5,700  Level Minneapolis Center
05:53PM 44.7181 -92.6262 113° Southeast  Level Estimated
05:53PM 45.0367 -93.1750 60° Northeast 260 299 8,600  Level Minneapolis Center
05:54PM 44.6766 -92.4779 125° Southeast  Level Estimated
05:54PM 44.9903 -93.0803 125° Southeast 290 334 10,900  Level Minneapolis Center
05:55PM 44.6350 -92.3298 117° Southeast  Level Estimated
05:55PM 44.9372 -92.9731 125° Southeast 334 384 12,600  Level Minneapolis Center
05:56PM 44.5623 -92.2188 133° Southeast  Level FlightAware Approximate
05:56PM 44.8811 -92.8578 124° Southeast 352 405 14,900  Level Minneapolis Center
05:57PM 44.8106 -92.7153 125° Southeast 369 425 17,400 2,220 Climbing Minneapolis Center
05:58PM 44.7494 -92.5944 125° Southeast 377 434 19,500 1,980 Climbing Minneapolis Center
05:59PM 44.6872 -92.4706 125° Southeast 386 444 21,600 1,740 Climbing Minneapolis Center
06:00PM 44.6250 -92.3461 125° Southeast 389 448 23,100 1,380 Climbing Minneapolis Center
06:01PM 44.5594 -92.2172 125° Southeast 402 463 24,500 1,560 Climbing Minneapolis Center
06:02PM 44.4919 -92.0872 126° Southeast 410 472 26,400 1,680 Climbing Minneapolis Center
06:03PM 44.4139 -91.9342 125° Southeast 406 467 28,000 1,440 Climbing Minneapolis Center
06:04PM 44.3503 -91.8044 124° Southeast 405 466 29,400 1,260 Climbing Minneapolis Center
06:05PM 44.3003 -91.6678 117° Southeast 399 459 30,700 1,020 Climbing Minneapolis Center
06:06PM 44.2492 -91.5331 118° Southeast 396 456 31,600 720 Climbing Minneapolis Center
06:07PM 44.1947 -91.3969 119° Southeast 398 458 32,200 480 Climbing Minneapolis Center
06:08PM 44.1408 -91.2564 118° Southeast 405 466 32,600 540 Climbing Minneapolis Center
06:09PM 44.0753 -91.0811 117° Southeast 416 479 33,400 900 Climbing Minneapolis Center
06:10PM 44.0181 -90.9344 118° Southeast 427 491 34,500 720 Climbing Minneapolis Center
06:11PM 43.9628 -90.7931 118° Southeast 423 487 35,000 240 Climbing Minneapolis Center
06:12PM 43.9056 -90.6475 119° Southeast 428 493 35,000  Level Minneapolis Center
06:13PM 43.8347 -90.4697 119° Southeast 442 509 35,000  Level Minneapolis Center
06:15PM 43.7750 -90.3200 119° Southeast 445 512 35,000  Level Minneapolis Center
06:16PM 43.7275 -90.1617 112° Southeast 447 514 35,000  Level Minneapolis Center
06:17PM 43.6989 -89.9933 103° East 450 518 35,000  Level Minneapolis Center
06:18PM 43.6697 -89.8286 104° East 444 511 35,000  Level Minneapolis Center
06:18PM 43.6589 -89.7736 105° East 446 513 35,000  Level Chicago Center
06:19PM 43.6289 -89.6094 104° East 443 510 35,000  Level Chicago Center
06:20PM 43.5978 -89.4456 105° East 440 506 35,000  Level Chicago Center
06:21PM 43.5678 -89.2819 104° East 440 506 35,000  Level Chicago Center
06:22PM 43.5317 -89.0917 105° East 438 504 35,000  Level Chicago Center
06:23PM 43.5003 -88.9253 105° East 447 514 35,000  Level Chicago Center
06:24PM 43.4683 -88.7586 105° East 451 519 35,000  Level Chicago Center
06:25PM 43.4364 -88.5936 105° East 456 525 35,000  Level Chicago Center
06:26PM 43.4022 -88.4231 105° East 459 528 35,000  Level Chicago Center
06:27PM 43.3661 -88.2367 105° East 454 522 35,000  Level Chicago Center
06:28PM 43.3333 -88.0697 105° East 452 520 35,000  Level Chicago Center
06:29PM 43.3008 -87.9050 105° East 448 516 35,000  Level Chicago Center
06:30PM 43.2608 -87.7117 106° East 452 520 35,000  Level Chicago Center
06:31PM 43.2283 -87.5478 105° East 446 513 35,000  Level Chicago Center
06:32PM 43.1936 -87.3825 106° East 449 517 35,000  Level Chicago Center
06:33PM 43.1633 -87.2383 106° East 444 511 35,000  Level Chicago Center
06:34PM 43.1239 -87.0461 106° East 438 504 35,000  Level Chicago Center
06:35PM 43.0908 -86.8889 106° East 432 497 35,000  Level Chicago Center
06:37PM 43.0586 -86.7325 106° East 430 495 35,000  Level Chicago Center
06:38PM 43.0242 -86.5778 107° East 427 491 35,000  Level Chicago Center
06:39PM 42.9906 -86.4233 107° East 427 491 35,000  Level Chicago Center
06:40PM 42.9494 -86.2356 107° East 435 501 35,000  Level Chicago Center
06:41PM 42.9139 -86.0800 107° East 438 504 35,000  Level Chicago Center
06:42PM 42.8806 -85.9219 106° East 445 512 35,000  Level Chicago Center
06:43PM 42.8458 -85.7622 106° East 448 516 35,000  Level Chicago Center
06:44PM 42.8044 -85.5736 107° East 439 505 35,000  Level Chicago Center
06:45PM 42.7608 -85.4197 111° Southeast 438 504 35,000  Level Chicago Center
06:46PM 42.7106 -85.2747 115° Southeast 428 493 35,000  Level Chicago Center
06:47PM 42.6575 -85.1306 117° Southeast 427 491 35,000  Level Chicago Center
06:48PM 42.6064 -84.9858 116° Southeast 428 493 35,000  Level Chicago Center
06:49PM 42.5450 -84.8108 115° Southeast 430 495 35,000  Level Chicago Center
06:50PM 42.4939 -84.6658 116° Southeast 428 493 35,000  Level Chicago Center
06:51PM 42.4419 -84.5225 116° Southeast 427 491 35,000  Level Chicago Center
06:52PM 42.3908 -84.3806 116° Southeast 422 486 35,000  Level Chicago Center
06:53PM 42.3383 -84.2378 116° Southeast 423 487 35,000  Level Chicago Center
06:54PM 42.2892 -84.1172 119° Southeast 426 490 35,000  Level Cleveland Center
06:55PM 42.2372 -83.9742 116° Southeast 426 490 35,000  Level Cleveland Center
06:56PM 42.1831 -83.8283 117° Southeast 426 490 35,000  Level Cleveland Center
06:57PM 42.1286 -83.6856 117° Southeast 426 490 35,000  Level Cleveland Center
06:58PM 42.0761 -83.5375 115° Southeast 426 490 35,000  Level Cleveland Center
06:59PM 42.0150 -83.3975 120° Southeast 432 497 35,000  Level Cleveland Center
07:00PM 41.9492 -83.2719 125° Southeast 425 489 35,000  Level Cleveland Center
07:01PM 41.8794 -83.1406 125° Southeast 425 489 35,000  Level Cleveland Center
07:02PM 41.8114 -83.0097 125° Southeast 425 489 35,000  Level Cleveland Center
07:03PM 41.7389 -82.8761 126° Southeast 435 501 35,000  Level Cleveland Center
07:04PM 41.6686 -82.7458 126° Southeast 435 501 35,000  Level Cleveland Center
07:05PM 41.5919 -82.6072 126° Southeast 435 501 35,000  Level Cleveland Center
07:06PM 41.5061 -82.4964 136° Southeast 424 488 35,000  Level Cleveland Center
07:07PM 41.4225 -82.3886 136° Southeast 424 488 35,000  Level Cleveland Center
07:08PM 41.3367 -82.2811 137° Southeast 424 488 35,000  Level Cleveland Center
07:09PM 41.2486 -82.1711 137° Southeast 429 494 35,000  Level Cleveland Center
07:10PM 41.1625 -82.0586 135° Southeast 439 505 35,000  Level Cleveland Center
07:11PM 41.0719 -81.9547 139° Southeast 434 499 35,000  Level Cleveland Center
07:12PM 40.9878 -81.8483 136° Southeast 434 499 35,000  Level Cleveland Center
07:13PM 40.9033 -81.7453 137° Southeast 428 493 35,000  Level Cleveland Center
07:14PM 40.8169 -81.6367 136° Southeast 428 493 35,000  Level Cleveland Center
07:15PM 40.7303 -81.5311 137° Southeast 428 493 35,000  Level Cleveland Center
07:16PM 40.6456 -81.4258 137° Southeast 422 486 35,000  Level Cleveland Center
07:17PM 40.5714 -81.3292 135° Southeast 422 486 35,000  Level Cleveland Center
07:18PM 40.4864 -81.2272 138° Southeast 422 486 35,000  Level Cleveland Center
07:19PM 40.4058 -81.1119 133° Southeast 422 486 35,000  Level Cleveland Center
07:20PM 40.3250 -80.9969 133° Southeast 422 486 35,000  Level Cleveland Center
07:21PM 40.2439 -80.8850 133° Southeast 427 491 35,000  Level Cleveland Center
07:22PM 40.1628 -80.7706 133° Southeast 427 491 35,000  Level Cleveland Center
07:23PM 40.0797 -80.6592 134° Southeast 427 491 35,000 -300 Level Cleveland Center
07:24PM 39.9983 -80.5453 133° Southeast 427 491 34,400 -900 Descending Cleveland Center
07:25PM 39.9169 -80.4314 133° Southeast 427 491 33,300 -1,140 Descending Cleveland Center
07:26PM 39.8314 -80.3156 134° Southeast 427 491 32,200 -1,140 Descending Cleveland Center
07:27PM 39.7475 -80.1997 133° Southeast 427 491 31,100 -420 Descending Cleveland Center
07:29PM 39.5600 -79.9442 134° Southeast 448 516 31,000 -60 Descending Washington Center
07:30PM 39.4725 -79.8286 134° Southeast 448 516 31,000  Level Washington Center
07:31PM 39.3869 -79.7108 133° Southeast 459 528 31,000  Level Washington Center
07:32PM 39.3033 -79.5936 133° Southeast 454 522 31,000 -780 Level Washington Center
07:33PM 39.2628 -79.4358 108° East 443 510 29,500 -1,740 Descending Washington Center
07:34PM 39.2514 -79.2664 95° East 450 518 27,500 -1,260 Descending Washington Center
07:35PM 39.2367 -79.1261 98° East 444 511 27,000 -720 Descending Washington Center
07:36PM 39.2267 -78.9703 95° East 439 505 26,200 -1,320 Descending Washington Center
07:37PM 39.2061 -78.8033 99° East 434 499 24,400 -2,220 Descending Washington Center
07:38PM 39.1969 -78.6742 95° East 422 486 21,800 -2,340 Descending Washington Center
07:39PM 39.1819 -78.5317 98° East 409 471 19,700 -1,920 Descending Washington Center
07:40PM 39.1667 -78.3786 97° East 395 455 18,000 -2,040 Descending Washington Center
07:41PM 39.0992 -78.3197 146° Southeast 336 387 15,800 -2,040 Descending Washington Center
07:42PM 38.9933 -78.2997 172° South 305 351 14,100 -900 Descending Washington Center
07:43PM 38.9133 -78.2489 154° Southeast 317 365 14,000 -540 Descending Washington Center
07:44PM 38.9158 -78.1261 88° East 278 320 13,100 -480 Descending Washington Center
07:45PM 38.9372 -78.0042 77° East 298 343 13,100 -60 Level Washington Center
07:46PM 38.9414 -77.8950 87° East 321 369 13,000 -840 Descending Washington Center
07:47PM 38.9458 -77.7642 87° East 339 390 11,400 -1,740 Descending Washington Center
07:48PM 38.9500 -77.6167 88° East 294 338 9,000 -1,560 Descending Potomac TRACON
07:49PM 38.9500 -77.5167 90° East 292 336 7,800 -1,020 Descending Potomac TRACON
07:50PM 38.9667 -77.4167 78° East 271 312 7,000 -1,140 Descending Potomac TRACON
07:51PM 38.9500 -77.3333 104° East 240 276 5,600 -1,500 Descending Potomac TRACON
07:52PM 38.9500 -77.2500 90° East 239 275 4,000 -1,620 Descending Potomac TRACON